createdAt,value
2018-03-30T00:01:44.895Z,72.04
2018-03-30T00:02:44.831Z,72.89
2018-03-30T00:04:36.722Z,73.37
2018-03-30T00:05:36.640Z,72.89
2018-03-30T00:07:28.433Z,72.61
2018-03-30T00:08:28.370Z,71.57
2018-03-30T00:10:20.105Z,70.24
2018-03-30T00:11:20.026Z,73.08
2018-03-30T00:13:11.873Z,71.95
2018-03-30T00:14:11.807Z,71.19
2018-03-30T00:16:03.733Z,70.53
2018-03-30T00:17:03.657Z,70.81
2018-03-30T00:18:55.537Z,72.71
2018-03-30T00:19:55.454Z,71.66
2018-03-30T00:21:47.381Z,71.47
2018-03-30T00:22:47.277Z,74.13
2018-03-30T00:24:40.038Z,71.66
2018-03-30T00:25:39.963Z,71.85
2018-03-30T00:27:31.732Z,74.03
2018-03-30T00:28:31.667Z,73.37
2018-03-30T00:30:23.472Z,71.66
2018-03-30T00:31:23.392Z,71.00
2018-03-30T00:33:15.177Z,71.47
2018-03-30T00:34:15.107Z,70.81
2018-03-30T00:36:06.907Z,74.22
2018-03-30T00:37:06.824Z,73.56
2018-03-30T00:38:58.612Z,72.80
2018-03-30T00:39:58.537Z,76.40
2018-03-30T00:41:50.285Z,74.13
2018-03-30T00:42:50.220Z,74.88
2018-03-30T00:44:41.992Z,71.95
2018-03-30T00:45:41.916Z,74.13
2018-03-30T00:47:33.846Z,73.27
2018-03-30T00:48:33.777Z,70.90
2018-03-30T00:50:25.588Z,71.38
2018-03-30T00:51:25.529Z,71.47
2018-03-30T00:53:17.427Z,72.42
2018-03-30T00:54:17.350Z,73.84
2018-03-30T00:56:09.300Z,71.47
2018-03-30T00:57:09.219Z,70.24
2018-03-30T00:59:01.007Z,70.53
2018-03-30T01:00:00.926Z,73.08
2018-03-30T01:01:53.683Z,71.38
2018-03-30T01:02:53.632Z,72.61
2018-03-30T01:04:45.448Z,71.57
2018-03-30T01:05:45.365Z,71.38
2018-03-30T01:07:37.273Z,71.19
2018-03-30T01:08:37.210Z,69.77
2018-03-30T01:10:28.968Z,68.63
2018-03-30T01:11:28.880Z,70.62
2018-03-30T01:13:20.658Z,68.25
2018-03-30T01:14:20.581Z,68.15
2018-03-30T01:16:13.343Z,68.73
2018-03-30T01:17:13.266Z,68.25
2018-03-30T01:19:05.023Z,69.57
2018-03-30T01:20:04.934Z,71.09
2018-03-30T01:21:56.862Z,70.90
2018-03-30T01:22:56.795Z,70.81
2018-03-30T01:24:49.558Z,68.15
2018-03-30T01:25:49.485Z,67.21
2018-03-30T01:27:42.226Z,68.35
2018-03-30T01:28:42.165Z,69.38
2018-03-30T01:30:33.971Z,68.06
2018-03-30T01:31:33.889Z,67.77
2018-03-30T01:33:26.649Z,68.63
2018-03-30T01:34:26.578Z,69.01
2018-03-30T01:36:19.375Z,68.25
2018-03-30T01:37:19.265Z,68.15
2018-03-30T01:39:12.070Z,69.38
2018-03-30T01:40:11.968Z,68.15
2018-03-30T01:42:03.846Z,68.35
2018-03-30T01:43:03.769Z,67.93
2018-03-30T01:44:55.507Z,66.60
2018-03-30T01:45:55.430Z,67.74
2018-03-30T01:47:47.270Z,66.70
2018-03-30T01:48:47.192Z,65.28
2018-03-30T01:50:39.024Z,66.70
2018-03-30T01:51:38.942Z,65.84
2018-03-30T01:53:31.700Z,66.13
2018-03-30T01:54:31.636Z,70.20
2018-03-30T01:56:24.408Z,69.17
2018-03-30T01:57:24.319Z,70.20
2018-03-30T01:59:16.250Z,70.49
2018-03-30T02:00:16.179Z,69.92
2018-03-30T02:02:08.071Z,73.24
2018-03-30T02:03:07.992Z,74.66
2018-03-30T02:04:59.767Z,72.00
2018-03-30T02:05:59.668Z,73.43
2018-03-30T02:07:51.501Z,73.24
2018-03-30T02:08:51.452Z,73.05
2018-03-30T02:10:43.252Z,75.42
2018-03-30T02:11:43.196Z,71.62
2018-03-30T02:13:34.919Z,73.33
2018-03-30T02:14:34.849Z,76.46
2018-03-30T02:16:26.633Z,74.18
2018-03-30T02:17:26.554Z,76.46
2018-03-30T02:19:18.371Z,76.65
2018-03-30T02:20:18.300Z,77.03
2018-03-30T02:22:10.171Z,77.78
2018-03-30T02:23:10.090Z,79.30
2018-03-30T02:25:01.907Z,78.26
2018-03-30T02:26:01.825Z,81.38
2018-03-30T02:27:53.595Z,78.45
2018-03-30T02:28:53.523Z,84.13
2018-03-30T02:30:45.276Z,80.72
2018-03-30T02:31:45.202Z,81.38
2018-03-30T02:33:36.952Z,82.52
2018-03-30T02:34:36.900Z,80.25
2018-03-30T02:36:28.688Z,82.14
2018-03-30T02:37:28.612Z,82.81
2018-03-30T02:39:20.406Z,83.75
2018-03-30T02:40:20.337Z,83.18
2018-03-30T02:42:12.209Z,84.32
2018-03-30T02:43:12.103Z,82.43
2018-03-30T02:45:04.872Z,82.33
2018-03-30T02:46:04.808Z,79.87
2018-03-30T02:47:56.552Z,84.51
2018-03-30T02:48:56.485Z,82.43
2018-03-30T02:50:48.380Z,86.12
2018-03-30T02:51:48.299Z,81.29
2018-03-30T02:53:40.196Z,83.00
2018-03-30T02:54:40.135Z,81.57
2018-03-30T02:56:32.038Z,82.95
2018-03-30T02:57:31.963Z,77.88
2018-03-30T02:59:24.717Z,82.20
2018-03-30T03:00:24.658Z,83.05
2018-03-30T03:02:16.449Z,79.77
2018-03-30T03:03:16.373Z,82.33
2018-03-30T03:05:08.238Z,80.02
2018-03-30T03:06:08.158Z,82.39
2018-03-30T03:08:00.103Z,78.79
2018-03-30T03:09:00.033Z,82.33
2018-03-30T03:10:51.851Z,80.11
2018-03-30T03:11:51.769Z,82.01
2018-03-30T03:13:44.536Z,82.48
2018-03-30T03:14:44.467Z,80.34
2018-03-30T03:16:37.262Z,78.03
2018-03-30T03:17:37.172Z,82.76
2018-03-30T03:19:29.939Z,82.20
2018-03-30T03:20:29.863Z,83.62
2018-03-30T03:22:21.695Z,86.08
2018-03-30T03:23:21.630Z,82.48
2018-03-30T03:25:14.438Z,85.51
2018-03-30T03:26:14.332Z,84.94
2018-03-30T03:28:06.181Z,82.10
2018-03-30T03:29:06.113Z,81.53
2018-03-30T03:30:58.060Z,82.57
2018-03-30T03:31:57.963Z,81.44
2018-03-30T03:33:50.714Z,79.45
2018-03-30T03:34:50.650Z,80.11
2018-03-30T03:36:42.466Z,82.01
2018-03-30T03:37:42.344Z,80.49
2018-03-30T03:39:34.106Z,81.25
2018-03-30T03:40:34.041Z,78.79
2018-03-30T03:42:25.794Z,77.94
2018-03-30T03:43:25.713Z,76.38
2018-03-30T03:45:17.469Z,75.28
2018-03-30T03:46:17.394Z,76.10
2018-03-30T03:48:09.187Z,76.48
2018-03-30T03:49:09.093Z,77.51
2018-03-30T03:51:00.851Z,74.02
2018-03-30T03:52:00.773Z,77.23
2018-03-30T03:53:52.730Z,75.72
2018-03-30T03:54:52.673Z,74.02
2018-03-30T03:56:44.424Z,76.57
2018-03-30T03:57:44.339Z,76.38
2018-03-30T03:59:36.242Z,74.77
2018-03-30T04:00:36.178Z,76.10
2018-03-30T04:02:27.985Z,74.40
2018-03-30T04:03:27.908Z,72.60
2018-03-30T04:05:19.661Z,74.40
2018-03-30T04:06:19.586Z,74.58
2018-03-30T04:08:11.341Z,71.17
2018-03-30T04:09:11.259Z,73.35
2018-03-30T04:11:03.181Z,73.54
2018-03-30T04:12:03.095Z,72.78
2018-03-30T04:13:55.846Z,75.05
2018-03-30T04:14:55.777Z,76.86
2018-03-30T04:16:47.641Z,75.43
2018-03-30T04:17:47.538Z,77.42
2018-03-30T04:19:39.404Z,76.19
2018-03-30T04:20:39.405Z,78.85
2018-03-30T04:22:32.133Z,77.51
2018-03-30T04:23:32.054Z,79.41
2018-03-30T04:25:23.767Z,77.48
2018-03-30T04:26:23.693Z,82.21
2018-03-30T04:28:15.583Z,79.85
2018-03-30T04:29:15.505Z,80.51
2018-03-30T04:31:08.252Z,79.75
2018-03-30T04:32:08.172Z,77.86
2018-03-30T04:34:00.935Z,80.04
2018-03-30T04:35:00.896Z,81.45
2018-03-30T04:36:53.637Z,81.36
2018-03-30T04:37:53.550Z,81.17
2018-03-30T04:39:45.425Z,82.31
2018-03-30T04:40:45.372Z,82.40
2018-03-30T04:42:37.124Z,81.07
2018-03-30T04:43:37.041Z,79.37
2018-03-30T04:45:29.814Z,77.58
2018-03-30T04:46:29.756Z,77.48
2018-03-30T04:48:21.543Z,75.21
2018-03-30T04:49:21.458Z,76.72
2018-03-30T04:51:13.232Z,81.26
2018-03-30T04:52:13.140Z,80.98
2018-03-30T04:54:04.872Z,77.58
2018-03-30T04:55:04.803Z,78.71
2018-03-30T04:56:56.609Z,77.39
2018-03-30T04:57:56.499Z,78.14
2018-03-30T04:59:48.349Z,75.87
2018-03-30T05:00:48.279Z,73.22
2018-03-30T05:02:40.218Z,74.74
2018-03-30T05:03:40.121Z,74.55
2018-03-30T05:05:31.977Z,73.13
2018-03-30T05:06:31.874Z,73.98
2018-03-30T05:08:24.649Z,74.45
2018-03-30T05:09:24.585Z,77.10
2018-03-30T05:11:16.515Z,80.04
2018-03-30T05:12:16.417Z,78.99
2018-03-30T05:14:08.200Z,79.85
2018-03-30T05:15:08.129Z,78.61
2018-03-30T05:17:00.019Z,79.09
2018-03-30T05:17:59.890Z,77.76
2018-03-30T05:19:51.752Z,77.58
2018-03-30T05:20:51.678Z,77.76
2018-03-30T05:22:44.073Z,76.44
2018-03-30T05:23:43.565Z,75.68
2018-03-30T05:25:35.514Z,77.29
2018-03-30T05:26:35.440Z,78.71
2018-03-30T05:28:28.223Z,82.21
2018-03-30T05:29:28.140Z,80.60
2018-03-30T05:31:20.911Z,80.04
2018-03-30T05:32:20.841Z,78.65
2018-03-30T05:34:12.603Z,78.46
2018-03-30T05:35:12.522Z,79.60
2018-03-30T05:37:04.393Z,85.00
2018-03-30T05:38:04.316Z,83.95
2018-03-30T05:39:56.147Z,83.29
2018-03-30T05:40:56.084Z,83.01
2018-03-30T05:42:47.925Z,85.38
2018-03-30T05:43:47.847Z,86.79
2018-03-30T05:45:39.633Z,88.17
2018-03-30T05:46:39.565Z,88.54
2018-03-30T05:48:31.504Z,91.10
2018-03-30T05:49:31.448Z,96.69
2018-03-30T05:51:23.345Z,96.78
2018-03-30T05:52:23.279Z,95.07
2018-03-30T05:54:15.047Z,97.25
2018-03-30T05:55:14.966Z,95.74
2018-03-30T05:57:07.738Z,94.70
2018-03-30T05:58:07.650Z,96.07
2018-03-30T05:59:59.400Z,99.99
2018-03-30T06:00:59.334Z,99.99
2018-03-30T06:02:51.113Z,99.99
2018-03-30T06:03:51.035Z,99.99
2018-03-30T06:05:42.954Z,99.99
2018-03-30T06:06:42.889Z,99.99
2018-03-30T06:08:34.690Z,99.99
2018-03-30T06:09:34.658Z,99.99
2018-03-30T06:11:26.359Z,99.99
2018-03-30T06:12:26.282Z,99.99
2018-03-30T06:14:18.062Z,99.99
2018-03-30T06:15:17.971Z,99.99
2018-03-30T06:17:09.765Z,99.99
2018-03-30T06:18:09.688Z,99.99
2018-03-30T06:20:02.086Z,99.99
2018-03-30T06:21:01.365Z,99.99
2018-03-30T06:22:53.127Z,99.99
2018-03-30T06:23:53.044Z,99.99
2018-03-30T06:25:45.811Z,99.99
2018-03-30T06:26:45.790Z,99.99
2018-03-30T06:28:38.508Z,99.99
2018-03-30T06:29:38.431Z,99.99
2018-03-30T06:31:30.218Z,99.99
2018-03-30T06:32:30.144Z,99.99
2018-03-30T06:34:21.931Z,99.99
2018-03-30T06:35:21.859Z,99.99
2018-03-30T06:37:13.678Z,99.99
2018-03-30T06:38:13.610Z,99.99
2018-03-30T06:40:05.420Z,99.99
2018-03-30T06:41:05.356Z,99.99
2018-03-30T06:42:57.166Z,99.99
2018-03-30T06:43:57.091Z,99.99
2018-03-30T06:45:49.058Z,99.99
2018-03-30T06:46:48.932Z,99.99
2018-03-30T06:48:40.711Z,99.99
2018-03-30T06:49:40.635Z,99.99
2018-03-30T06:51:32.505Z,96.41
2018-03-30T06:52:32.443Z,99.99
2018-03-30T06:54:24.250Z,99.99
2018-03-30T06:55:24.178Z,99.99
2018-03-30T06:57:15.946Z,91.80
2018-03-30T06:58:15.883Z,93.65
2018-03-30T07:00:07.787Z,99.99
2018-03-30T07:01:07.722Z,98.97
2018-03-30T07:03:00.562Z,94.65
2018-03-30T07:04:00.488Z,84.23
2018-03-30T07:05:52.305Z,78.08
2018-03-30T07:06:52.240Z,79.51
2018-03-30T07:08:44.216Z,70.50
2018-03-30T07:09:44.143Z,70.21
2018-03-30T07:11:35.944Z,76.56
2018-03-30T07:12:35.871Z,84.65
2018-03-30T07:14:27.704Z,78.69
2018-03-30T07:15:27.629Z,84.92
2018-03-30T07:17:20.415Z,70.65
2018-03-30T07:18:20.351Z,86.65
2018-03-30T07:20:13.144Z,78.16
2018-03-30T07:21:13.069Z,68.72
2018-03-30T07:23:05.878Z,74.44
2018-03-30T07:24:05.799Z,72.88
2018-03-30T07:25:58.578Z,69.60
2018-03-30T07:26:58.516Z,74.62
2018-03-30T07:28:50.367Z,90.18
2018-03-30T07:29:50.296Z,87.38
2018-03-30T07:31:43.070Z,89.66
2018-03-30T07:32:43.012Z,99.99
2018-03-30T07:34:35.808Z,99.99
2018-03-30T07:35:35.739Z,99.99
2018-03-30T07:37:27.566Z,99.99
2018-03-30T07:38:27.510Z,84.66
2018-03-30T07:40:20.294Z,99.22
2018-03-30T07:41:20.255Z,88.60
2018-03-30T07:43:13.025Z,83.26
2018-03-30T07:44:12.935Z,79.40
2018-03-30T07:46:04.938Z,70.28
2018-03-30T07:47:04.835Z,70.76
2018-03-30T07:48:56.642Z,70.82
2018-03-30T07:49:56.604Z,81.59
2018-03-30T07:51:49.351Z,68.28
2018-03-30T07:52:49.279Z,65.99
2018-03-30T07:54:42.069Z,65.13
2018-03-30T07:55:41.994Z,66.18
2018-03-30T07:57:34.787Z,75.85
2018-03-30T07:58:34.710Z,68.06
2018-03-30T08:00:27.499Z,59.88
2018-03-30T08:01:27.424Z,59.56
2018-03-30T08:03:20.213Z,59.56
2018-03-30T08:04:20.139Z,64.65
2018-03-30T08:06:12.010Z,58.26
2018-03-30T08:07:11.950Z,57.50
2018-03-30T08:09:03.776Z,61.95
2018-03-30T08:10:03.652Z,57.46
2018-03-30T08:11:55.489Z,58.80
2018-03-30T08:12:55.412Z,61.51
2018-03-30T08:14:47.191Z,57.68
2018-03-30T08:15:47.122Z,58.42
2018-03-30T08:17:38.908Z,58.58
2018-03-30T08:18:38.848Z,58.97
2018-03-30T08:20:30.742Z,62.75
2018-03-30T08:21:30.678Z,63.99
2018-03-30T08:23:22.473Z,61.57
2018-03-30T08:24:22.406Z,66.44
2018-03-30T08:26:15.182Z,77.06
2018-03-30T08:27:15.119Z,65.80
2018-03-30T08:29:07.915Z,63.73
2018-03-30T08:30:07.851Z,60.87
2018-03-30T08:31:59.620Z,60.21
2018-03-30T08:32:59.552Z,60.21
2018-03-30T08:34:52.346Z,58.73
2018-03-30T08:35:52.275Z,59.15
2018-03-30T08:37:44.146Z,55.07
2018-03-30T08:38:44.083Z,53.70
2018-03-30T08:40:35.884Z,55.87
2018-03-30T08:41:35.814Z,57.87
2018-03-30T08:43:27.611Z,55.54
2018-03-30T08:44:27.536Z,54.68
2018-03-30T08:46:20.321Z,54.30
2018-03-30T08:47:20.265Z,53.51
2018-03-30T08:49:12.195Z,55.26
2018-03-30T08:50:12.126Z,53.61
2018-03-30T08:52:04.902Z,54.49
2018-03-30T08:53:04.884Z,54.56
2018-03-30T08:54:57.639Z,54.59
2018-03-30T08:55:57.572Z,54.21
2018-03-30T08:57:49.393Z,53.29
2018-03-30T08:58:49.335Z,55.94
2018-03-30T09:00:41.143Z,57.21
2018-03-30T09:01:41.083Z,56.99
2018-03-30T09:03:33.879Z,56.60
2018-03-30T09:04:33.801Z,58.51
2018-03-30T09:06:26.576Z,57.56
2018-03-30T09:07:26.525Z,59.85
2018-03-30T09:09:18.337Z,58.11
2018-03-30T09:10:18.283Z,60.58
2018-03-30T09:12:10.179Z,61.35
2018-03-30T09:13:10.117Z,61.07
2018-03-30T09:15:02.035Z,60.49
2018-03-30T09:16:01.983Z,61.63
2018-03-30T09:17:53.722Z,59.92
2018-03-30T09:18:53.664Z,61.13
2018-03-30T09:20:45.602Z,63.13
2018-03-30T09:21:45.525Z,62.72
2018-03-30T09:23:37.519Z,74.57
2018-03-30T09:24:37.463Z,70.51
2018-03-30T09:26:29.232Z,60.49
2018-03-30T09:27:29.213Z,59.99
2018-03-30T09:29:20.939Z,67.90
2018-03-30T09:30:20.866Z,66.47
2018-03-30T09:32:12.716Z,69.07
2018-03-30T09:33:12.659Z,77.03
2018-03-30T09:35:04.615Z,89.50
2018-03-30T09:36:04.551Z,89.60
2018-03-30T09:37:56.317Z,76.10
2018-03-30T09:38:56.250Z,70.09
2018-03-30T09:40:48.044Z,66.09
2018-03-30T09:41:47.965Z,68.66
2018-03-30T09:43:39.774Z,69.48
2018-03-30T09:44:39.716Z,71.72
2018-03-30T09:46:31.604Z,69.23
2018-03-30T09:47:31.523Z,70.67
2018-03-30T09:49:23.373Z,70.78
2018-03-30T09:50:23.295Z,73.26
2018-03-30T09:52:15.145Z,76.59
2018-03-30T09:53:15.078Z,78.25
2018-03-30T09:55:07.874Z,70.59
2018-03-30T09:56:07.800Z,72.78
2018-03-30T09:57:59.741Z,73.45
2018-03-30T09:58:59.673Z,74.02
2018-03-30T10:00:51.560Z,78.12
2018-03-30T10:01:51.532Z,80.07
2018-03-30T10:03:43.248Z,80.41
2018-03-30T10:04:43.193Z,81.26
2018-03-30T10:06:35.984Z,73.58
2018-03-30T10:07:35.906Z,75.36
2018-03-30T10:09:27.671Z,79.64
2018-03-30T10:10:27.602Z,79.55
2018-03-30T10:12:19.386Z,72.72
2018-03-30T10:13:19.325Z,71.48
2018-03-30T10:15:11.200Z,72.31
2018-03-30T10:16:11.130Z,76.65
2018-03-30T10:18:02.903Z,84.22
2018-03-30T10:19:02.847Z,79.17
2018-03-30T10:20:54.766Z,74.25
2018-03-30T10:21:54.691Z,72.12
2018-03-30T10:23:46.593Z,72.44
2018-03-30T10:24:46.512Z,77.11
2018-03-30T10:26:38.424Z,69.56
2018-03-30T10:27:38.347Z,67.49
2018-03-30T10:29:30.248Z,59.47
2018-03-30T10:30:30.170Z,61.00
2018-03-30T10:32:22.098Z,61.51
2018-03-30T10:33:22.011Z,60.52
2018-03-30T10:35:13.783Z,65.80
2018-03-30T10:36:13.716Z,68.47
2018-03-30T10:38:06.494Z,65.61
2018-03-30T10:39:06.434Z,68.60
2018-03-30T10:40:59.223Z,63.86
2018-03-30T10:41:59.142Z,62.84
2018-03-30T10:43:50.917Z,59.78
2018-03-30T10:44:50.836Z,59.69
2018-03-30T10:46:42.615Z,61.13
2018-03-30T10:47:42.564Z,58.64
2018-03-30T10:49:34.364Z,60.42
2018-03-30T10:50:34.269Z,59.88
2018-03-30T10:52:26.113Z,59.12
2018-03-30T10:53:26.048Z,60.39
2018-03-30T10:55:17.878Z,60.39
2018-03-30T10:56:17.807Z,65.17
2018-03-30T10:58:10.580Z,64.15
2018-03-30T10:59:10.630Z,62.71
2018-03-30T11:01:02.277Z,61.79
2018-03-30T11:02:02.204Z,63.29
2018-03-30T11:03:54.986Z,61.89
2018-03-30T11:04:54.916Z,59.98
2018-03-30T11:06:46.697Z,58.61
2018-03-30T11:07:46.622Z,58.03
2018-03-30T11:09:39.408Z,56.75
2018-03-30T11:10:39.344Z,55.47
2018-03-30T11:12:31.135Z,55.23
2018-03-30T11:13:31.066Z,56.18
2018-03-30T11:15:23.858Z,57.14
2018-03-30T11:16:23.789Z,56.82
2018-03-30T11:18:15.731Z,60.04
2018-03-30T11:19:15.673Z,60.90
2018-03-30T11:21:08.465Z,64.12
2018-03-30T11:22:08.391Z,64.50
2018-03-30T11:24:00.260Z,60.36
2018-03-30T11:25:00.181Z,61.03
2018-03-30T11:26:52.956Z,61.66
2018-03-30T11:27:52.883Z,61.41
2018-03-30T11:29:44.775Z,67.86
2018-03-30T11:30:44.720Z,73.52
2018-03-30T11:32:36.547Z,65.89
2018-03-30T11:33:36.470Z,68.03
2018-03-30T11:35:29.265Z,64.62
2018-03-30T11:36:29.198Z,64.05
2018-03-30T11:38:22.014Z,62.68
2018-03-30T11:39:21.920Z,62.88
2018-03-30T11:41:13.766Z,65.04
2018-03-30T11:42:13.691Z,69.81
2018-03-30T11:44:06.465Z,72.34
2018-03-30T11:45:06.407Z,71.58
2018-03-30T11:46:58.270Z,70.78
2018-03-30T11:47:58.146Z,74.31
2018-03-30T11:49:51.204Z,82.69
2018-03-30T11:50:51.113Z,77.26
2018-03-30T11:52:44.014Z,74.75
2018-03-30T11:53:43.895Z,80.41
2018-03-30T11:55:36.683Z,84.69
2018-03-30T11:56:36.618Z,80.94
2018-03-30T11:58:28.519Z,82.31
2018-03-30T11:59:28.421Z,85.36
2018-03-30T12:01:20.529Z,85.27
2018-03-30T12:02:20.487Z,84.79
2018-03-30T12:04:13.273Z,78.85
2018-03-30T12:05:13.238Z,78.75
2018-03-30T12:07:06.132Z,83.41
2018-03-30T12:08:05.928Z,86.84
2018-03-30T12:09:57.849Z,80.12
2018-03-30T12:10:57.866Z,82.21
2018-03-30T12:12:49.724Z,80.55
2018-03-30T12:13:49.600Z,82.93
2018-03-30T12:15:41.481Z,81.41
2018-03-30T12:16:41.346Z,83.32
2018-03-30T12:18:33.269Z,83.41
2018-03-30T12:19:33.187Z,77.51
2018-03-30T12:21:25.032Z,79.22
2018-03-30T12:22:24.954Z,85.22
2018-03-30T12:24:16.887Z,85.46
2018-03-30T12:25:16.774Z,86.03
2018-03-30T12:27:08.636Z,85.27
2018-03-30T12:28:08.535Z,81.65
2018-03-30T12:30:01.361Z,80.02
2018-03-30T12:31:01.291Z,78.98
2018-03-30T12:32:53.252Z,82.60
2018-03-30T12:33:53.147Z,82.31
2018-03-30T12:35:45.053Z,79.83
2018-03-30T12:36:44.980Z,81.17
2018-03-30T12:38:37.756Z,78.31
2018-03-30T12:39:37.683Z,80.31
2018-03-30T12:41:29.483Z,76.21
2018-03-30T12:42:29.461Z,74.88
2018-03-30T12:44:22.177Z,83.26
2018-03-30T12:45:22.122Z,78.31
2018-03-30T12:47:13.915Z,74.60
2018-03-30T12:48:13.802Z,80.79
2018-03-30T12:50:05.680Z,76.88
2018-03-30T12:51:05.613Z,76.65
2018-03-30T12:52:58.573Z,79.55
2018-03-30T12:53:58.326Z,79.46
2018-03-30T12:55:51.148Z,80.12
2018-03-30T12:56:51.044Z,73.55
2018-03-30T12:58:43.804Z,73.93
2018-03-30T12:59:43.757Z,75.49
2018-03-30T13:01:35.589Z,75.40
2018-03-30T13:02:35.531Z,75.49
2018-03-30T13:04:27.314Z,73.30
2018-03-30T13:05:27.257Z,73.49
2018-03-30T13:07:19.040Z,70.82
2018-03-30T13:08:18.968Z,69.68
2018-03-30T13:10:10.782Z,68.82
2018-03-30T13:11:10.720Z,69.43
2018-03-30T13:13:02.552Z,69.58
2018-03-30T13:14:02.475Z,67.68
2018-03-30T13:15:54.301Z,67.29
2018-03-30T13:16:54.251Z,67.10
2018-03-30T13:18:46.067Z,71.77
2018-03-30T13:19:45.995Z,70.31
2018-03-30T13:21:37.775Z,67.83
2018-03-30T13:22:37.701Z,68.12
2018-03-30T13:24:29.448Z,75.74
2018-03-30T13:25:29.382Z,73.07
2018-03-30T13:27:22.174Z,70.21
2018-03-30T13:28:22.090Z,69.58
2018-03-30T13:30:14.025Z,68.15
2018-03-30T13:31:13.959Z,67.10
2018-03-30T13:33:05.826Z,66.63
2018-03-30T13:34:05.735Z,65.10
2018-03-30T13:35:58.462Z,67.07
2018-03-30T13:36:58.398Z,67.58
2018-03-30T13:38:50.807Z,67.39
2018-03-30T13:39:50.213Z,67.86
2018-03-30T13:41:42.985Z,69.01
2018-03-30T13:42:42.910Z,67.39
2018-03-30T13:44:34.658Z,67.33
2018-03-30T13:45:34.591Z,66.85
2018-03-30T13:47:26.446Z,65.77
2018-03-30T13:48:26.370Z,64.43
2018-03-30T13:50:18.173Z,64.15
2018-03-30T13:51:18.140Z,66.44
2018-03-30T13:53:10.044Z,66.94
2018-03-30T13:54:09.817Z,66.18
2018-03-30T13:56:01.648Z,63.80
2018-03-30T13:57:01.597Z,64.18
2018-03-30T13:58:53.409Z,63.80
2018-03-30T13:59:53.311Z,63.42
2018-03-30T14:01:45.087Z,63.89
2018-03-30T14:02:45.037Z,63.99
2018-03-30T14:04:36.814Z,64.09
2018-03-30T14:05:36.748Z,62.46
2018-03-30T14:07:28.538Z,63.23
2018-03-30T14:08:28.559Z,64.18
2018-03-30T14:10:21.288Z,63.48
2018-03-30T14:11:21.167Z,63.76
2018-03-30T14:13:13.016Z,65.99
2018-03-30T14:14:12.943Z,65.61
2018-03-30T14:16:04.766Z,66.94
2018-03-30T14:17:04.670Z,64.37
2018-03-30T14:18:56.454Z,63.70
2018-03-30T14:19:56.379Z,62.56
2018-03-30T14:21:48.165Z,65.61
2018-03-30T14:22:48.102Z,64.75
2018-03-30T14:24:39.922Z,65.13
2018-03-30T14:25:39.885Z,63.13
2018-03-30T14:27:33.245Z,62.94
2018-03-30T14:28:32.598Z,64.47
2018-03-30T14:30:24.379Z,64.94
2018-03-30T14:31:24.306Z,62.56
2018-03-30T14:33:17.180Z,63.70
2018-03-30T14:34:17.049Z,62.46
2018-03-30T14:36:08.878Z,61.51
2018-03-30T14:37:08.806Z,61.80
2018-03-30T14:39:00.594Z,60.94
2018-03-30T14:40:00.652Z,62.37
2018-03-30T14:41:52.428Z,63.51
2018-03-30T14:42:52.361Z,64.65
2018-03-30T14:44:44.263Z,63.60
2018-03-30T14:45:44.239Z,63.60
2018-03-30T14:47:35.957Z,61.67
2018-03-30T14:48:35.895Z,62.94
2018-03-30T14:50:28.734Z,63.39
2018-03-30T14:51:28.599Z,62.62
2018-03-30T14:53:20.564Z,63.99
2018-03-30T14:54:20.484Z,63.89
2018-03-30T14:56:12.274Z,62.37
2018-03-30T14:57:12.237Z,61.22
2018-03-30T14:59:04.008Z,61.04
2018-03-30T15:00:03.944Z,62.37
2018-03-30T15:01:55.744Z,62.65
2018-03-30T15:02:55.680Z,62.27
2018-03-30T15:04:47.508Z,62.27
2018-03-30T15:05:47.406Z,62.75
2018-03-30T15:07:39.224Z,64.47
2018-03-30T15:08:39.190Z,62.84
2018-03-30T15:10:30.948Z,64.37
2018-03-30T15:11:30.873Z,63.23
2018-03-30T15:13:22.689Z,63.89
2018-03-30T15:14:22.560Z,63.99
2018-03-30T15:16:14.367Z,64.24
2018-03-30T15:17:14.284Z,63.60
2018-03-30T15:19:06.092Z,64.09
2018-03-30T15:20:06.044Z,63.60
2018-03-30T15:21:58.958Z,64.15
2018-03-30T15:22:58.950Z,63.99
2018-03-30T15:24:50.664Z,63.13
2018-03-30T15:25:50.591Z,63.89
2018-03-30T15:27:42.382Z,64.18
2018-03-30T15:28:42.316Z,65.29
2018-03-30T15:30:34.091Z,67.68
2018-03-30T15:31:34.017Z,68.34
2018-03-30T15:33:25.943Z,69.10
2018-03-30T15:34:25.881Z,68.63
2018-03-30T15:36:17.673Z,71.77
2018-03-30T15:37:17.609Z,70.53
2018-03-30T15:39:09.366Z,71.77
2018-03-30T15:40:09.293Z,75.01
2018-03-30T15:42:01.122Z,74.06
2018-03-30T15:43:01.078Z,73.30
2018-03-30T15:44:52.973Z,72.25
2018-03-30T15:45:52.848Z,74.16
2018-03-30T15:47:44.733Z,74.88
2018-03-30T15:48:44.643Z,74.73
2018-03-30T15:50:36.418Z,78.73
2018-03-30T15:51:36.341Z,79.59
2018-03-30T15:53:28.180Z,76.73
2018-03-30T15:54:28.052Z,76.64
2018-03-30T15:56:19.886Z,76.50
2018-03-30T15:57:19.808Z,79.46
2018-03-30T15:59:11.641Z,80.12
2018-03-30T16:00:11.578Z,78.78
2018-03-30T16:02:03.416Z,84.22
2018-03-30T16:03:03.324Z,80.12
2018-03-30T16:04:55.117Z,84.12
2018-03-30T16:05:55.014Z,84.12
2018-03-30T16:07:46.764Z,83.65
2018-03-30T16:08:46.703Z,86.41
2018-03-30T16:10:38.479Z,87.17
2018-03-30T16:11:38.418Z,88.70
2018-03-30T16:13:30.156Z,86.75
2018-03-30T16:14:30.095Z,85.46
2018-03-30T16:16:22.135Z,86.98
2018-03-30T16:17:21.835Z,88.70
2018-03-30T16:19:13.608Z,87.89
2018-03-30T16:20:13.540Z,88.27
2018-03-30T16:22:05.304Z,87.03
2018-03-30T16:23:05.229Z,89.61
2018-03-30T16:24:57.004Z,85.89
2018-03-30T16:25:56.937Z,86.08
2018-03-30T16:27:48.738Z,88.08
2018-03-30T16:28:48.728Z,90.94
2018-03-30T16:30:40.472Z,90.27
2018-03-30T16:31:40.409Z,88.46
2018-03-30T16:33:32.204Z,89.03
2018-03-30T16:34:32.160Z,88.99
2018-03-30T16:36:24.049Z,86.04
2018-03-30T16:37:23.986Z,88.13
2018-03-30T16:39:15.861Z,88.32
2018-03-30T16:40:15.677Z,84.99
2018-03-30T16:42:07.442Z,91.17
2018-03-30T16:43:07.350Z,88.79
2018-03-30T16:44:59.102Z,88.79
2018-03-30T16:45:59.037Z,89.08
2018-03-30T16:47:50.823Z,89.27
2018-03-30T16:48:50.738Z,86.32
2018-03-30T16:50:42.598Z,88.99
2018-03-30T16:51:42.425Z,90.70
2018-03-30T16:53:34.244Z,89.84
2018-03-30T16:54:34.155Z,89.75
2018-03-30T16:56:25.903Z,88.46
2018-03-30T16:57:25.841Z,88.23
2018-03-30T16:59:17.612Z,92.08
2018-03-30T17:00:17.534Z,92.08
2018-03-30T17:02:09.469Z,93.51
2018-03-30T17:03:09.221Z,93.51
2018-03-30T17:05:00.966Z,94.08
2018-03-30T17:06:00.896Z,97.03
2018-03-30T17:07:52.655Z,96.74
2018-03-30T17:08:52.571Z,95.03
2018-03-30T17:10:44.364Z,97.69
2018-03-30T17:11:44.297Z,99.22
2018-03-30T17:13:36.118Z,99.99
2018-03-30T17:14:36.018Z,98.03
2018-03-30T17:16:27.761Z,97.17
2018-03-30T17:17:27.700Z,97.03
2018-03-30T17:19:19.449Z,98.36
2018-03-30T17:20:19.374Z,98.83
2018-03-30T17:22:11.143Z,95.98
2018-03-30T17:23:11.155Z,97.45
2018-03-30T17:25:02.824Z,97.74
2018-03-30T17:26:02.764Z,98.50
2018-03-30T17:27:54.543Z,97.55
2018-03-30T17:28:54.449Z,99.99
2018-03-30T17:30:46.213Z,99.99
2018-03-30T17:31:46.149Z,99.99
2018-03-30T17:33:37.914Z,98.88
2018-03-30T17:34:37.832Z,99.84
2018-03-30T17:36:29.630Z,99.99
2018-03-30T17:37:29.588Z,99.99
2018-03-30T17:39:21.395Z,98.88
2018-03-30T17:40:21.305Z,99.99
2018-03-30T17:42:13.202Z,99.45
2018-03-30T17:43:13.110Z,96.89
2018-03-30T17:45:04.917Z,96.98
2018-03-30T17:46:04.842Z,96.60
2018-03-30T17:47:56.638Z,94.65
2018-03-30T17:48:56.557Z,95.75
2018-03-30T17:50:48.371Z,97.69
2018-03-30T17:51:48.309Z,97.22
2018-03-30T17:53:40.115Z,96.08
2018-03-30T17:54:40.038Z,96.45
2018-03-30T17:56:31.807Z,96.17
2018-03-30T17:57:31.736Z,93.04
2018-03-30T17:59:23.592Z,94.08
2018-03-30T18:00:23.478Z,94.74
2018-03-30T18:02:15.255Z,93.23
2018-03-30T18:03:15.205Z,94.84
2018-03-30T18:05:07.113Z,96.26
2018-03-30T18:06:07.067Z,94.37
2018-03-30T18:07:58.819Z,94.74
2018-03-30T18:08:58.741Z,96.55
2018-03-30T18:10:50.545Z,96.26
2018-03-30T18:11:50.478Z,97.60
2018-03-30T18:13:42.230Z,96.45
2018-03-30T18:14:42.157Z,98.83
2018-03-30T18:16:33.918Z,98.74
2018-03-30T18:17:33.843Z,97.03
2018-03-30T18:19:25.638Z,98.40
2018-03-30T18:20:25.565Z,99.30
2018-03-30T18:22:17.424Z,99.99
2018-03-30T18:23:17.263Z,99.40
2018-03-30T18:25:09.077Z,99.99
2018-03-30T18:26:09.002Z,99.99
2018-03-30T18:28:00.804Z,99.99